Cheyenne — WDE9553 — position and weather

sailwx.info

Track history (hours):
 
Tides and Currents Weather Stations Pressure Air Temp Water Temp Dewpoint Dewpoint Depression Visibility Wind Speed Wind Dir Waves Ship Positions

Cheyenne

Owner: DMC MARINE, LLC, HILLSIDE, NJ. More information available from US FCC via Universal Licensing System and Coast Guard Vessel Documentation Center.

Last reported at 2014-Oct-25 03:32 UTC. Time now 2014-Oct-25 04:18 UTC.
Position N 40°41' W 074°08'.

Length 29 m; draft 4 m.

Type: Towing. MMSI: 367418570.

Date/timePositionNaut miles runAvg speedWind from/ knotsBaromVisibWave heightAir tempDewpointWater temp
2014-Oct-25 03:32N 40°41' W 074°08'0 0.0
2014-Oct-25 02:33N 40°41' W 074°08'2 2.4
2014-Oct-25 01:33N 40°39' W 074°08'4 4.2
2014-Oct-25 00:33N 40°41' W 074°04'4 3.7
2014-Oct-24 23:30N 40°40' W 074°09'2 2.6
2014-Oct-24 22:33N 40°42' W 074°09'1 1.1
2014-Oct-24 21:33N 40°41' W 074°08'0 0.1
2014-Oct-24 20:25N 40°41' W 074°08'2 2.6
2014-Oct-24 19:27N 40°39' W 074°07'3 3.3
2014-Oct-24 18:33N 40°41' W 074°04'2 2.1
2014-Oct-24 17:33N 40°39' W 074°05'3 3.2
2014-Oct-24 16:32N 40°41' W 074°08'2 2.3
2014-Oct-24 15:33N 40°39' W 074°09'3 3.5
2014-Oct-24 14:33N 40°39' W 074°04'2 1.8
2014-Oct-24 13:33N 40°41' W 074°05'4 3.5
2014-Oct-24 12:33N 40°40' W 074°00'1 1.3
2014-Oct-24 11:33N 40°40' W 074°02'2 0.2
2014-Oct-23 21:33N 40°41' W 074°05'3 3.3
2014-Oct-23 20:33N 40°42' W 074°00'4 3.6
2014-Oct-23 19:33N 40°44' W 073°57'2 2.1
2014-Oct-23 18:33N 40°43' W 073°59'4 4.4
2014-Oct-23 17:33N 40°41' W 074°04'1 0.6
2014-Oct-23 16:22N 40°41' W 074°05'0 0.1
2014-Oct-23 15:33N 40°41' W 074°05'0 0.0
2014-Oct-23 14:27N 40°41' W 074°05'0 0.0
2014-Oct-23 13:29N 40°41' W 074°05'0 0.0
2014-Oct-23 12:33N 40°41' W 074°05'0 0.0
2014-Oct-23 11:33N 40°41' W 074°05'0 0.0
2014-Oct-23 10:33N 40°41' W 074°05'0 0.0
2014-Oct-23 09:27N 40°41' W 074°05'0 0.0
2014-Oct-23 08:33N 40°41' W 074°05'0 0.0
2014-Oct-23 07:33N 40°41' W 074°05'0 0.0
2014-Oct-23 06:33N 40°41' W 074°05'1 1.3
2014-Oct-23 05:33N 40°41' W 074°03'6 6.0
2014-Oct-23 04:33N 40°44' W 073°57'1 0.5
2014-Oct-23 03:33N 40°44' W 073°57'5 4.7
2014-Oct-23 02:33N 40°42' W 074°02'1 1.5
2014-Oct-23 01:33N 40°41' W 074°04'5 4.8
2014-Oct-23 00:33N 40°43' W 073°58'1 1.3
2014-Oct-22 23:33N 40°44' W 073°57'6 6.2
2014-Oct-22 22:33N 40°41' W 074°04'0 0.2
2014-Oct-22 21:33N 40°41' W 074°05'4 3.9
2014-Oct-22 20:33N 40°42' W 073°60'3 2.8
2014-Oct-22 19:32N 40°44' W 073°57'3 2.6
2014-Oct-22 18:33N 40°43' W 073°59'4 4.3
2014-Oct-22 17:33N 40°41' W 074°05'0 0.1
2014-Oct-22 16:33N 40°41' W 074°05'0 0.0
2014-Oct-22 15:31N 40°41' W 074°05'0 0.0
2014-Oct-22 14:33N 40°41' W 074°05'0 0.0
2014-Oct-22 13:33N 40°41' W 074°05'0 0.0
2014-Oct-22 12:33N 40°41' W 074°05'0 0.0
2014-Oct-22 11:29N 40°41' W 074°05'0 0.0
2014-Oct-22 10:33N 40°41' W 074°05'0 0.0
2014-Oct-22 09:32N 40°41' W 074°05'0 0.0
2014-Oct-22 08:29N 40°41' W 074°05'1 0.6
2014-Oct-22 07:33N 40°41' W 074°04'6 6.0
2014-Oct-22 06:33N 40°45' W 073°58'2 0.2
2014-Oct-21 20:33N 40°43' W 073°58'5 4.8
2014-Oct-21 19:32N 40°41' W 074°05'0 0.0
2014-Oct-21 18:33N 40°41' W 074°05'0 0.0
2014-Oct-21 17:33N 40°41' W 074°05'0 0.0
2014-Oct-21 16:33N 40°41' W 074°05'0 0.0
2014-Oct-21 15:33N 40°41' W 074°05'0 0.0
2014-Oct-21 14:33N 40°41' W 074°05'0 0.0
2014-Oct-21 13:33N 40°41' W 074°05'0 0.0
2014-Oct-21 12:33N 40°41' W 074°05'4 3.6
2014-Oct-21 11:33N 40°40' W 074°00'1 0.7
2014-Oct-21 10:33N 40°40' W 074°01'3 3.1
2014-Oct-21 09:33N 40°41' W 074°05'0 0.0
2014-Oct-21 08:33N 40°41' W 074°05'0 0.0
2014-Oct-21 07:33N 40°41' W 074°05'0 0.0
2014-Oct-21 06:33N 40°41' W 074°05'0 0.0
2014-Oct-21 05:32N 40°41' W 074°05'0 0.0
2014-Oct-21 04:33N 40°41' W 074°05'0 0.0
2014-Oct-21 03:33N 40°41' W 074°05'0 0.0
2014-Oct-21 02:33N 40°41' W 074°05'0 0.0
2014-Oct-21 01:33N 40°41' W 074°05'0 0.0
2014-Oct-21 00:31N 40°41' W 074°05'0 0.0
2014-Oct-20 23:33N 40°41' W 074°05'0 0.2
2014-Oct-20 22:33N 40°41' W 074°04'0 0.2
2014-Oct-20 21:30N 40°41' W 074°05'0 0.0
2014-Oct-20 20:33N 40°41' W 074°05'0 0.0
2014-Oct-20 19:33N 40°41' W 074°05'0 0.0
2014-Oct-20 18:33N 40°41' W 074°05'0 0.0
2014-Oct-20 17:33N 40°41' W 074°05'5 4.7
2014-Oct-20 16:33N 40°43' W 073°59'2 2.2
2014-Oct-20 15:31N 40°44' W 073°57'4 4.2
2014-Oct-20 14:33N 40°41' W 074°00'3 3.2
2014-Oct-20 13:33N 40°41' W 074°05'0 0.0
2014-Oct-20 12:33N 40°41' W 074°05'0 0.0
2014-Oct-20 11:32N 40°41' W 074°05'0 0.0
2014-Oct-20 10:32N 40°41' W 074°05'0 0.0
2014-Oct-20 09:14N 40°41' W 074°05'0 0.0
2014-Oct-20 08:30N 40°41' W 074°05'0 0.0
2014-Oct-20 07:33N 40°41' W 074°05'0 0.0
2014-Oct-20 06:33N 40°41' W 074°05'0 0.0
2014-Oct-20 05:33N 40°41' W 074°05'0 0.0
2014-Oct-20 04:33N 40°41' W 074°05'0 0.0
2014-Oct-20 03:33N 40°41' W 074°05'0 0.0
2014-Oct-20 02:33N 40°41' W 074°05'0 0.0
2014-Oct-20 01:33N 40°41' W 074°05'0 0.0
2014-Oct-20 00:33N 40°41' W 074°05'0 0.0
2014-Oct-19 23:33N 40°41' W 074°05'0 0.0
2014-Oct-19 22:33N 40°41' W 074°05'0 0.0
2014-Oct-19 21:33N 40°41' W 074°05'0 0.0
2014-Oct-19 20:33N 40°41' W 074°05'0 0.0
2014-Oct-19 19:31N 40°41' W 074°05'0 0.0
2014-Oct-19 18:33N 40°41' W 074°05'0 0.0
2014-Oct-19 17:33N 40°41' W 074°05'0 0.0
2014-Oct-19 16:33N 40°41' W 074°05'0 0.0
2014-Oct-19 15:33N 40°41' W 074°05'0 0.0
2014-Oct-19 14:33N 40°41' W 074°05'0 0.0
2014-Oct-19 13:33N 40°41' W 074°05'0 0.0
2014-Oct-19 12:33N 40°41' W 074°05'0 0.0
2014-Oct-19 11:33N 40°41' W 074°05'0 0.0
2014-Oct-19 10:33N 40°41' W 074°05'0 0.0
2014-Oct-19 09:30N 40°41' W 074°05'0 0.0
2014-Oct-19 08:33N 40°41' W 074°05'0 0.0
2014-Oct-19 07:33N 40°41' W 074°05'0 0.0
2014-Oct-19 06:33N 40°41' W 074°05'0 0.0
2014-Oct-19 05:33N 40°41' W 074°05'0 0.0
2014-Oct-19 04:33N 40°41' W 074°05'0 0.0
2014-Oct-19 03:33N 40°41' W 074°05'0 0.0
2014-Oct-19 02:33N 40°41' W 074°05'0 0.0
2014-Oct-19 01:33N 40°41' W 074°05'0 0.0
2014-Oct-19 00:33N 40°41' W 074°05'0 0.0
2014-Oct-18 23:33N 40°41' W 074°05'0 0.0
2014-Oct-18 22:33N 40°41' W 074°05'1 1.2
2014-Oct-18 21:33N 40°40' W 074°04'4 2.0
2014-Oct-18 19:23N 40°42' W 074°09'2 2.7
2014-Oct-18 18:33N 40°40' W 074°09'3 3.4
2014-Oct-18 17:33N 40°40' W 074°04'7 6.9
2014-Oct-18 16:32N 40°46' W 074°00'1 0.7
2014-Oct-18 15:33N 40°46' W 073°60'6 5.7
2014-Oct-18 14:25N 40°41' W 074°05'0 0.0
2014-Oct-18 13:06N 40°41' W 074°05'0 0.0
2014-Oct-18 12:33N 40°41' W 074°05'3 2.6
2014-Oct-18 11:30N 40°42' W 074°01'9 4.1
2014-Oct-18 09:18N 40°48' W 073°52'4 1.0
2014-Oct-18 05:14N 40°49' W 073°47'0 0.0
2014-Oct-18 04:20N 40°49' W 073°47'6 2.8
2014-Oct-18 02:03N 40°55' W 073°42'3 4.9
2014-Oct-18 01:31N 40°56' W 073°39'5 5.2
2014-Oct-18 00:33N 40°59' W 073°34'4 3.4
2014-Oct-17 23:23N 41°03' W 073°32'27 4.0
2014-Oct-17 16:33N 40°44' W 073°58'5 5.4
2014-Oct-17 15:33N 40°41' W 074°04'2 1.7
2014-Oct-17 14:33N 40°41' W 074°02'5 0.9
2014-Oct-17 08:33N 40°46' W 073°57'7 6.9
2014-Oct-17 07:33N 40°41' W 074°04'1 0.5
2014-Oct-17 06:26N 40°41' W 074°05'0 0.0
2014-Oct-17 05:33N 40°41' W 074°05'0 0.0
2014-Oct-17 04:33N 40°41' W 074°05'0 0.0
2014-Oct-17 03:33N 40°41' W 074°05'2 1.7
2014-Oct-17 02:33N 40°41' W 074°02'8 6.0
2014-Oct-17 01:17N 40°47' W 073°55'4 5.5
2014-Oct-17 00:31N 40°48' W 073°50'3 2.7
2014-Oct-16 23:29N 40°51' W 073°49'8 2.4
2014-Oct-16 20:03N 40°46' W 073°57'4 7.6
2014-Oct-16 19:33N 40°42' W 073°60'4 4.0
2014-Oct-16 18:33N 40°41' W 074°05'0 0.0
2014-Oct-16 17:33N 40°41' W 074°05'0 0.0
2014-Oct-16 16:33N 40°41' W 074°05'0 0.0
2014-Oct-16 15:33N 40°41' W 074°05'0 0.0
2014-Oct-16 14:33N 40°41' W 074°05'0 0.0
2014-Oct-16 13:33N 40°41' W 074°05'0 0.0
2014-Oct-16 12:33N 40°41' W 074°05'0 0.0
2014-Oct-16 10:28N 40°41' W 074°05'0 0.0
2014-Oct-16 09:33N 40°41' W 074°05'0 0.0
2014-Oct-16 08:23N 40°41' W 074°05'0 0.0
2014-Oct-16 06:27N 40°41' W 074°05'0 0.0
2014-Oct-16 04:18N 40°41' W 074°05'1 0.2
2014-Oct-16 00:24N 40°41' W 074°04'2 0.6
2014-Oct-15 20:33N 40°39' W 074°06'2 1.7
2014-Oct-15 19:09N 40°41' W 074°05'3 5.2
2014-Oct-15 18:32N 40°40' W 074°01'1 0.8
2014-Oct-15 17:24N 40°40' W 074°02'2 0.3
2014-Oct-15 09:27N 40°41' W 074°05'0 0.0
2014-Oct-15 06:29N 40°41' W 074°05'  
Track history (hours):
 
Tides and Currents Weather Stations Pressure Air Temp Water Temp Dewpoint Dewpoint Depression Visibility Wind Speed Wind Dir Waves Ship Positions

Cheyenne

Owner: DMC MARINE, LLC, HILLSIDE, NJ. More information available from US FCC via Universal Licensing System and Coast Guard Vessel Documentation Center.

Last reported at 2014-Oct-25 03:32 UTC. Time now 2014-Oct-25 04:18 UTC.
Position N 40°41' W 074°08'.

Length 29 m; draft 4 m.

Type: Towing. MMSI: 367418570.

Date/timePositionNaut miles runAvg speedWind from/ knotsBaromVisibWave heightAir tempDewpointWater temp
2014-Oct-25 03:32N 40°41' W 074°08'0 0.0
2014-Oct-25 02:33N 40°41' W 074°08'2 2.4
2014-Oct-25 01:33N 40°39' W 074°08'4 4.2
2014-Oct-25 00:33N 40°41' W 074°04'4 3.7
2014-Oct-24 23:30N 40°40' W 074°09'2 2.6
2014-Oct-24 22:33N 40°42' W 074°09'1 1.1
2014-Oct-24 21:33N 40°41' W 074°08'0 0.1
2014-Oct-24 20:25N 40°41' W 074°08'2 2.6
2014-Oct-24 19:27N 40°39' W 074°07'3 3.3
2014-Oct-24 18:33N 40°41' W 074°04'2 2.1
2014-Oct-24 17:33N 40°39' W 074°05'3 3.2
2014-Oct-24 16:32N 40°41' W 074°08'2 2.3
2014-Oct-24 15:33N 40°39' W 074°09'3 3.5
2014-Oct-24 14:33N 40°39' W 074°04'2 1.8
2014-Oct-24 13:33N 40°41' W 074°05'4 3.5
2014-Oct-24 12:33N 40°40' W 074°00'1 1.3
2014-Oct-24 11:33N 40°40' W 074°02'2 0.2
2014-Oct-23 21:33N 40°41' W 074°05'3 3.3
2014-Oct-23 20:33N 40°42' W 074°00'4 3.6
2014-Oct-23 19:33N 40°44' W 073°57'2 2.1
2014-Oct-23 18:33N 40°43' W 073°59'4 4.4
2014-Oct-23 17:33N 40°41' W 074°04'1 0.6
2014-Oct-23 16:22N 40°41' W 074°05'0 0.1
2014-Oct-23 15:33N 40°41' W 074°05'0 0.0
2014-Oct-23 14:27N 40°41' W 074°05'0 0.0
2014-Oct-23 13:29N 40°41' W 074°05'0 0.0
2014-Oct-23 12:33N 40°41' W 074°05'0 0.0
2014-Oct-23 11:33N 40°41' W 074°05'0 0.0
2014-Oct-23 10:33N 40°41' W 074°05'0 0.0
2014-Oct-23 09:27N 40°41' W 074°05'0 0.0
2014-Oct-23 08:33N 40°41' W 074°05'0 0.0
2014-Oct-23 07:33N 40°41' W 074°05'0 0.0
2014-Oct-23 06:33N 40°41' W 074°05'1 1.3
2014-Oct-23 05:33N 40°41' W 074°03'6 6.0
2014-Oct-23 04:33N 40°44' W 073°57'1 0.5
2014-Oct-23 03:33N 40°44' W 073°57'5 4.7
2014-Oct-23 02:33N 40°42' W 074°02'1 1.5
2014-Oct-23 01:33N 40°41' W 074°04'5 4.8
2014-Oct-23 00:33N 40°43' W 073°58'1 1.3
2014-Oct-22 23:33N 40°44' W 073°57'6 6.2
2014-Oct-22 22:33N 40°41' W 074°04'0 0.2
2014-Oct-22 21:33N 40°41' W 074°05'4 3.9
2014-Oct-22 20:33N 40°42' W 073°60'3 2.8
2014-Oct-22 19:32N 40°44' W 073°57'3 2.6
2014-Oct-22 18:33N 40°43' W 073°59'4 4.3
2014-Oct-22 17:33N 40°41' W 074°05'0 0.1
2014-Oct-22 16:33N 40°41' W 074°05'0 0.0
2014-Oct-22 15:31N 40°41' W 074°05'0 0.0
2014-Oct-22 14:33N 40°41' W 074°05'0 0.0
2014-Oct-22 13:33N 40°41' W 074°05'0 0.0
2014-Oct-22 12:33N 40°41' W 074°05'0 0.0
2014-Oct-22 11:29N 40°41' W 074°05'0 0.0
2014-Oct-22 10:33N 40°41' W 074°05'0 0.0
2014-Oct-22 09:32N 40°41' W 074°05'0 0.0
2014-Oct-22 08:29N 40°41' W 074°05'1 0.6
2014-Oct-22 07:33N 40°41' W 074°04'6 6.0
2014-Oct-22 06:33N 40°45' W 073°58'2 0.2
2014-Oct-21 20:33N 40°43' W 073°58'5 4.8
2014-Oct-21 19:32N 40°41' W 074°05'0 0.0
2014-Oct-21 18:33N 40°41' W 074°05'0 0.0
2014-Oct-21 17:33N 40°41' W 074°05'0 0.0
2014-Oct-21 16:33N 40°41' W 074°05'0 0.0
2014-Oct-21 15:33N 40°41' W 074°05'0 0.0
2014-Oct-21 14:33N 40°41' W 074°05'0 0.0
2014-Oct-21 13:33N 40°41' W 074°05'0 0.0
2014-Oct-21 12:33N 40°41' W 074°05'4 3.6
2014-Oct-21 11:33N 40°40' W 074°00'1 0.7
2014-Oct-21 10:33N 40°40' W 074°01'3 3.1
2014-Oct-21 09:33N 40°41' W 074°05'0 0.0
2014-Oct-21 08:33N 40°41' W 074°05'0 0.0
2014-Oct-21 07:33N 40°41' W 074°05'0 0.0
2014-Oct-21 06:33N 40°41' W 074°05'0 0.0
2014-Oct-21 05:32N 40°41' W 074°05'0 0.0
2014-Oct-21 04:33N 40°41' W 074°05'0 0.0
2014-Oct-21 03:33N 40°41' W 074°05'0 0.0
2014-Oct-21 02:33N 40°41' W 074°05'0 0.0
2014-Oct-21 01:33N 40°41' W 074°05'0 0.0
2014-Oct-21 00:31N 40°41' W 074°05'0 0.0
2014-Oct-20 23:33N 40°41' W 074°05'0 0.2
2014-Oct-20 22:33N 40°41' W 074°04'0 0.2
2014-Oct-20 21:30N 40°41' W 074°05'0 0.0
2014-Oct-20 20:33N 40°41' W 074°05'0 0.0
2014-Oct-20 19:33N 40°41' W 074°05'0 0.0
2014-Oct-20 18:33N 40°41' W 074°05'0 0.0
2014-Oct-20 17:33N 40°41' W 074°05'5 4.7
2014-Oct-20 16:33N 40°43' W 073°59'2 2.2
2014-Oct-20 15:31N 40°44' W 073°57'4 4.2
2014-Oct-20 14:33N 40°41' W 074°00'3 3.2
2014-Oct-20 13:33N 40°41' W 074°05'0 0.0
2014-Oct-20 12:33N 40°41' W 074°05'0 0.0
2014-Oct-20 11:32N 40°41' W 074°05'0 0.0
2014-Oct-20 10:32N 40°41' W 074°05'0 0.0
2014-Oct-20 09:14N 40°41' W 074°05'0 0.0
2014-Oct-20 08:30N 40°41' W 074°05'0 0.0
2014-Oct-20 07:33N 40°41' W 074°05'0 0.0
2014-Oct-20 06:33N 40°41' W 074°05'0 0.0
2014-Oct-20 05:33N 40°41' W 074°05'0 0.0
2014-Oct-20 04:33N 40°41' W 074°05'0 0.0
2014-Oct-20 03:33N 40°41' W 074°05'0 0.0
2014-Oct-20 02:33N 40°41' W 074°05'0 0.0
2014-Oct-20 01:33N 40°41' W 074°05'0 0.0
2014-Oct-20 00:33N 40°41' W 074°05'0 0.0
2014-Oct-19 23:33N 40°41' W 074°05'0 0.0
2014-Oct-19 22:33N 40°41' W 074°05'0 0.0
2014-Oct-19 21:33N 40°41' W 074°05'0 0.0
2014-Oct-19 20:33N 40°41' W 074°05'0 0.0
2014-Oct-19 19:31N 40°41' W 074°05'0 0.0
2014-Oct-19 18:33N 40°41' W 074°05'0 0.0
2014-Oct-19 17:33N 40°41' W 074°05'0 0.0
2014-Oct-19 16:33N 40°41' W 074°05'0 0.0
2014-Oct-19 15:33N 40°41' W 074°05'0 0.0
2014-Oct-19 14:33N 40°41' W 074°05'0 0.0
2014-Oct-19 13:33N 40°41' W 074°05'0 0.0
2014-Oct-19 12:33N 40°41' W 074°05'0 0.0
2014-Oct-19 11:33N 40°41' W 074°05'0 0.0
2014-Oct-19 10:33N 40°41' W 074°05'0 0.0
2014-Oct-19 09:30N 40°41' W 074°05'0 0.0
2014-Oct-19 08:33N 40°41' W 074°05'0 0.0
2014-Oct-19 07:33N 40°41' W 074°05'0 0.0
2014-Oct-19 06:33N 40°41' W 074°05'0 0.0
2014-Oct-19 05:33N 40°41' W 074°05'0 0.0
2014-Oct-19 04:33N 40°41' W 074°05'0 0.0
2014-Oct-19 03:33N 40°41' W 074°05'0 0.0
2014-Oct-19 02:33N 40°41' W 074°05'0 0.0
2014-Oct-19 01:33N 40°41' W 074°05'0 0.0
2014-Oct-19 00:33N 40°41' W 074°05'0 0.0
2014-Oct-18 23:33N 40°41' W 074°05'0 0.0
2014-Oct-18 22:33N 40°41' W 074°05'1 1.2
2014-Oct-18 21:33N 40°40' W 074°04'4 2.0
2014-Oct-18 19:23N 40°42' W 074°09'2 2.7
2014-Oct-18 18:33N 40°40' W 074°09'3 3.4
2014-Oct-18 17:33N 40°40' W 074°04'7 6.9
2014-Oct-18 16:32N 40°46' W 074°00'1 0.7
2014-Oct-18 15:33N 40°46' W 073°60'6 5.7
2014-Oct-18 14:25N 40°41' W 074°05'0 0.0
2014-Oct-18 13:06N 40°41' W 074°05'0 0.0
2014-Oct-18 12:33N 40°41' W 074°05'3 2.6
2014-Oct-18 11:30N 40°42' W 074°01'9 4.1
2014-Oct-18 09:18N 40°48' W 073°52'4 1.0
2014-Oct-18 05:14N 40°49' W 073°47'0 0.0
2014-Oct-18 04:20N 40°49' W 073°47'6 2.8
2014-Oct-18 02:03N 40°55' W 073°42'3 4.9
2014-Oct-18 01:31N 40°56' W 073°39'5 5.2
2014-Oct-18 00:33N 40°59' W 073°34'4 3.4
2014-Oct-17 23:23N 41°03' W 073°32'27 4.0
2014-Oct-17 16:33N 40°44' W 073°58'5 5.4
2014-Oct-17 15:33N 40°41' W 074°04'2 1.7
2014-Oct-17 14:33N 40°41' W 074°02'5 0.9
2014-Oct-17 08:33N 40°46' W 073°57'7 6.9
2014-Oct-17 07:33N 40°41' W 074°04'1 0.5
2014-Oct-17 06:26N 40°41' W 074°05'0 0.0
2014-Oct-17 05:33N 40°41' W 074°05'0 0.0
2014-Oct-17 04:33N 40°41' W 074°05'0 0.0
2014-Oct-17 03:33N 40°41' W 074°05'2 1.7
2014-Oct-17 02:33N 40°41' W 074°02'8 6.0
2014-Oct-17 01:17N 40°47' W 073°55'4 5.5
2014-Oct-17 00:31N 40°48' W 073°50'3 2.7
2014-Oct-16 23:29N 40°51' W 073°49'8 2.4
2014-Oct-16 20:03N 40°46' W 073°57'4 7.6
2014-Oct-16 19:33N 40°42' W 073°60'4 4.0
2014-Oct-16 18:33N 40°41' W 074°05'0 0.0
2014-Oct-16 17:33N 40°41' W 074°05'0 0.0
2014-Oct-16 16:33N 40°41' W 074°05'0 0.0
2014-Oct-16 15:33N 40°41' W 074°05'0 0.0
2014-Oct-16 14:33N 40°41' W 074°05'0 0.0
2014-Oct-16 13:33N 40°41' W 074°05'0 0.0
2014-Oct-16 12:33N 40°41' W 074°05'0 0.0
2014-Oct-16 10:28N 40°41' W 074°05'0 0.0
2014-Oct-16 09:33N 40°41' W 074°05'0 0.0
2014-Oct-16 08:23N 40°41' W 074°05'0 0.0
2014-Oct-16 06:27N 40°41' W 074°05'0 0.0
2014-Oct-16 04:18N 40°41' W 074°05'1 0.2
2014-Oct-16 00:24N 40°41' W 074°04'2 0.6
2014-Oct-15 20:33N 40°39' W 074°06'2 1.7
2014-Oct-15 19:09N 40°41' W 074°05'3 5.2
2014-Oct-15 18:32N 40°40' W 074°01'1 0.8
2014-Oct-15 17:24N 40°40' W 074°02'2 0.3
2014-Oct-15 09:27N 40°41' W 074°05'0 0.0
2014-Oct-15 06:29N 40°41' W 074°05'  

Dump ship's entire track history